IGO1106 VGHS-VECC
Flight info
| Callsign | IGO1106 |
|---|---|
| Flight time | 0h 32m |
| Altitude | 20000 |
| Route | IKOGU1C IKOGU A462 BEMAK BEMAK2G |
| Aircraft | A320/M-SDE3FGHIRWY/LB1 |
Departure
| Time | 2026-05-05 08:57 |
|---|---|
| Airport | Hazrat Shahjalal International Airport (VGHS) |
Arrival
| Time | 2026-05-05 09:29 |
|---|---|
| Airport | Netaji Subhash Chandra Bose International Airport (VECC) |
| Time | Latitude | Longitude | Altitude | Speed | Heading |
|---|---|---|---|---|---|
| 2026-05-05 08:42 | 23.84527 | 90.40607 | 35 ft | 0 kts | 53° |
| 2026-05-05 08:45 | 23.84514 | 90.40589 | 35 ft | 4 kts | 50° |
| 2026-05-05 08:45 | 23.84496 | 90.40567 | 35 ft | 4 kts | 44° |
| 2026-05-05 08:46 | 23.84475 | 90.40549 | 36 ft | 4 kts | 26° |
| 2026-05-05 08:46 | 23.84453 | 90.40543 | 36 ft | 4 kts | 331° |
| 2026-05-05 08:46 | 23.84445 | 90.40548 | 35 ft | 0 kts | 322° |
| 2026-05-05 08:50 | 23.84454 | 90.40541 | 36 ft | 2 kts | 322° |
| 2026-05-05 08:50 | 23.84472 | 90.40526 | 32 ft | 4 kts | 323° |
| 2026-05-05 08:50 | 23.84501 | 90.40502 | 36 ft | 6 kts | 323° |
| 2026-05-05 08:51 | 23.84540 | 90.40471 | 36 ft | 8 kts | 324° |
| 2026-05-05 08:51 | 23.84588 | 90.40433 | 36 ft | 9 kts | 323° |
| 2026-05-05 08:51 | 23.84645 | 90.40387 | 35 ft | 11 kts | 323° |
| 2026-05-05 08:51 | 23.84712 | 90.40334 | 36 ft | 13 kts | 324° |
| 2026-05-05 08:52 | 23.84789 | 90.40273 | 36 ft | 14 kts | 324° |
| 2026-05-05 08:52 | 23.84875 | 90.40205 | 35 ft | 16 kts | 324° |
| 2026-05-05 08:52 | 23.84980 | 90.40157 | 36 ft | 17 kts | 338° |
| 2026-05-05 08:52 | 23.85085 | 90.40079 | 36 ft | 19 kts | 324° |
| 2026-05-05 08:53 | 23.85174 | 90.40001 | 35 ft | 14 kts | 302° |
| 2026-05-05 08:53 | 23.85130 | 90.39907 | 36 ft | 15 kts | 233° |
| 2026-05-05 08:53 | 23.85137 | 90.39810 | 33 ft | 16 kts | 322° |
| 2026-05-05 08:53 | 23.85231 | 90.39734 | 34 ft | 18 kts | 323° |
| 2026-05-05 08:54 | 23.85335 | 90.39652 | 36 ft | 19 kts | 325° |
| 2026-05-05 08:54 | 23.85450 | 90.39562 | 36 ft | 21 kts | 324° |
| 2026-05-05 08:54 | 23.85574 | 90.39464 | 36 ft | 23 kts | 324° |
| 2026-05-05 08:54 | 23.85707 | 90.39358 | 34 ft | 22 kts | 323° |
| 2026-05-05 08:55 | 23.85768 | 90.39274 | 36 ft | 13 kts | 261° |
| 2026-05-05 08:55 | 23.85713 | 90.39188 | 36 ft | 15 kts | 233° |
| 2026-05-05 08:55 | 23.85649 | 90.39093 | 36 ft | 16 kts | 233° |
| 2026-05-05 08:55 | 23.85578 | 90.38988 | 35 ft | 18 kts | 233° |
| 2026-05-05 08:56 | 23.85501 | 90.38884 | 37 ft | 17 kts | 209° |
| 2026-05-05 08:56 | 23.85396 | 90.38937 | 37 ft | 21 kts | 143° |
| 2026-05-05 08:56 | 23.85115 | 90.39160 | 37 ft | 82 kts | 144° |
| 2026-05-05 08:56 | 23.84505 | 90.39645 | 38 ft | 132 kts | 144° |
| 2026-05-05 08:57 | 23.83659 | 90.40318 | 179 ft | 159 kts | 142° |
| 2026-05-05 08:57 | 23.82766 | 90.41037 | 745 ft | 161 kts | 142° |
| 2026-05-05 08:57 | 23.81806 | 90.41804 | 976 ft | 182 kts | 144° |
| 2026-05-05 08:57 | 23.80722 | 90.42664 | 1168 ft | 204 kts | 144° |
| 2026-05-05 08:58 | 23.79388 | 90.43400 | 1366 ft | 228 kts | 167° |
| 2026-05-05 08:58 | 23.77735 | 90.43418 | 1681 ft | 251 kts | 195° |
| 2026-05-05 08:58 | 23.76174 | 90.42501 | 2314 ft | 262 kts | 224° |
| 2026-05-05 08:58 | 23.75024 | 90.40948 | 3156 ft | 265 kts | 233° |
| 2026-05-05 08:59 | 23.73928 | 90.39322 | 4062 ft | 267 kts | 234° |
| 2026-05-05 08:59 | 23.72827 | 90.37680 | 4980 ft | 269 kts | 234° |
| 2026-05-05 08:59 | 23.71717 | 90.36023 | 5791 ft | 273 kts | 234° |
| 2026-05-05 08:59 | 23.70589 | 90.34340 | 6591 ft | 276 kts | 235° |
| 2026-05-05 09:00 | 23.69462 | 90.32636 | 7367 ft | 278 kts | 235° |
| 2026-05-05 09:00 | 23.68332 | 90.30913 | 8153 ft | 281 kts | 236° |
| 2026-05-05 09:00 | 23.67191 | 90.29170 | 8949 ft | 283 kts | 236° |
| 2026-05-05 09:00 | 23.66041 | 90.27416 | 9756 ft | 286 kts | 236° |
| 2026-05-05 09:01 | 23.64868 | 90.25631 | 10237 ft | 298 kts | 236° |
| 2026-05-05 09:01 | 23.63612 | 90.23719 | 10421 ft | 322 kts | 236° |
| 2026-05-05 09:01 | 23.62274 | 90.21668 | 10692 ft | 339 kts | 238° |
| 2026-05-05 09:01 | 23.61056 | 90.19447 | 11245 ft | 344 kts | 240° |
| 2026-05-05 09:02 | 23.59833 | 90.17178 | 11890 ft | 348 kts | 240° |
| 2026-05-05 09:02 | 23.58595 | 90.14895 | 12533 ft | 352 kts | 240° |
| 2026-05-05 09:02 | 23.57339 | 90.12584 | 13166 ft | 356 kts | 240° |
| 2026-05-05 09:02 | 23.56076 | 90.10254 | 13787 ft | 359 kts | 240° |
| 2026-05-05 09:03 | 23.54800 | 90.07895 | 14346 ft | 362 kts | 240° |
| 2026-05-05 09:03 | 23.53517 | 90.05522 | 14941 ft | 365 kts | 240° |
| 2026-05-05 09:03 | 23.52226 | 90.03135 | 15549 ft | 367 kts | 240° |
| 2026-05-05 09:03 | 23.50924 | 90.00731 | 16197 ft | 369 kts | 240° |
| 2026-05-05 09:04 | 23.49612 | 89.98318 | 16843 ft | 371 kts | 240° |
| 2026-05-05 09:04 | 23.48291 | 89.95894 | 17495 ft | 373 kts | 240° |
| 2026-05-05 09:04 | 23.46965 | 89.93459 | 18135 ft | 375 kts | 240° |
| 2026-05-05 09:04 | 23.45630 | 89.91006 | 18667 ft | 377 kts | 240° |
| 2026-05-05 09:05 | 23.44291 | 89.88546 | 19211 ft | 379 kts | 240° |
| 2026-05-05 09:05 | 23.42943 | 89.86066 | 19672 ft | 381 kts | 241° |
| 2026-05-05 09:05 | 23.41810 | 89.83463 | 19810 ft | 381 kts | 250° |
| 2026-05-05 09:05 | 23.41069 | 89.80664 | 19858 ft | 390 kts | 257° |
| 2026-05-05 09:06 | 23.40478 | 89.77766 | 19860 ft | 394 kts | 257° |
| 2026-05-05 09:06 | 23.39878 | 89.74849 | 19860 ft | 395 kts | 257° |
| 2026-05-05 09:06 | 23.39273 | 89.71932 | 19860 ft | 395 kts | 257° |
| 2026-05-05 09:06 | 23.38671 | 89.69059 | 19860 ft | 395 kts | 257° |
| 2026-05-05 09:07 | 23.38005 | 89.66161 | 19860 ft | 395 kts | 251° |
| 2026-05-05 09:07 | 23.36932 | 89.63419 | 19860 ft | 395 kts | 242° |
| 2026-05-05 09:07 | 23.35472 | 89.60885 | 19858 ft | 395 kts | 237° |
| 2026-05-05 09:07 | 23.33967 | 89.58382 | 19857 ft | 395 kts | 237° |
| 2026-05-05 09:08 | 23.32462 | 89.55875 | 19857 ft | 395 kts | 237° |
| 2026-05-05 09:08 | 23.30959 | 89.53371 | 19861 ft | 395 kts | 237° |
| 2026-05-05 09:08 | 23.29455 | 89.50863 | 19862 ft | 395 kts | 237° |
| 2026-05-05 09:08 | 23.27956 | 89.48359 | 19863 ft | 395 kts | 237° |
| 2026-05-05 09:09 | 23.26455 | 89.45853 | 19862 ft | 396 kts | 237° |
| 2026-05-05 09:09 | 23.24950 | 89.43345 | 19863 ft | 396 kts | 237° |
| 2026-05-05 09:09 | 23.23447 | 89.40837 | 19864 ft | 396 kts | 238° |
| 2026-05-05 09:09 | 23.21944 | 89.38327 | 19865 ft | 396 kts | 237° |
| 2026-05-05 09:10 | 23.20442 | 89.35820 | 19865 ft | 396 kts | 238° |
| 2026-05-05 09:10 | 23.18937 | 89.33308 | 19865 ft | 396 kts | 237° |
| 2026-05-05 09:10 | 23.17432 | 89.30803 | 19869 ft | 396 kts | 237° |
| 2026-05-05 09:10 | 23.15926 | 89.28303 | 19859 ft | 390 kts | 237° |
| 2026-05-05 09:11 | 23.14461 | 89.25869 | 19858 ft | 383 kts | 237° |
| 2026-05-05 09:11 | 23.13010 | 89.23455 | 19862 ft | 381 kts | 237° |
| 2026-05-05 09:11 | 23.11563 | 89.21050 | 19860 ft | 380 kts | 238° |
| 2026-05-05 09:11 | 23.10116 | 89.18646 | 19854 ft | 380 kts | 237° |
| 2026-05-05 09:12 | 23.08669 | 89.16242 | 19856 ft | 380 kts | 237° |
| 2026-05-05 09:12 | 23.07221 | 89.13837 | 19857 ft | 380 kts | 237° |
| 2026-05-05 09:12 | 23.05774 | 89.11435 | 19857 ft | 381 kts | 237° |
| 2026-05-05 09:12 | 23.04323 | 89.09031 | 19857 ft | 380 kts | 237° |
| 2026-05-05 09:13 | 23.02870 | 89.06630 | 19860 ft | 380 kts | 237° |
| 2026-05-05 09:13 | 23.01420 | 89.04227 | 19860 ft | 380 kts | 237° |
| 2026-05-05 09:13 | 22.99970 | 89.01826 | 19859 ft | 380 kts | 237° |
| 2026-05-05 09:13 | 22.98520 | 88.99424 | 19859 ft | 380 kts | 237° |
| 2026-05-05 09:14 | 22.97068 | 88.97021 | 19858 ft | 380 kts | 237° |
| 2026-05-05 09:14 | 22.95618 | 88.94621 | 19859 ft | 380 kts | 237° |
| 2026-05-05 09:14 | 22.94161 | 88.92224 | 19859 ft | 381 kts | 236° |
| 2026-05-05 09:14 | 22.92390 | 88.90098 | 19858 ft | 383 kts | 220° |
| 2026-05-05 09:15 | 22.90097 | 88.88624 | 19856 ft | 386 kts | 206° |
| 2026-05-05 09:15 | 22.87635 | 88.87458 | 19855 ft | 386 kts | 206° |
| 2026-05-05 09:15 | 22.85165 | 88.86304 | 19858 ft | 387 kts | 205° |
| 2026-05-05 09:15 | 22.82687 | 88.85153 | 19866 ft | 388 kts | 205° |
| 2026-05-05 09:16 | 22.80221 | 88.84006 | 19508 ft | 385 kts | 206° |
| 2026-05-05 09:16 | 22.78603 | 88.83251 | 18948 ft | 381 kts | 206° |
| 2026-05-05 09:16 | 22.76292 | 88.82168 | 18011 ft | 380 kts | 206° |
| 2026-05-05 09:16 | 22.73844 | 88.81018 | 16924 ft | 378 kts | 206° |
| 2026-05-05 09:17 | 22.71444 | 88.79890 | 15919 ft | 374 kts | 205° |
| 2026-05-05 09:17 | 22.69062 | 88.78771 | 14940 ft | 371 kts | 205° |
| 2026-05-05 09:17 | 22.66735 | 88.77682 | 14042 ft | 368 kts | 205° |
| 2026-05-05 09:17 | 22.64395 | 88.76589 | 13061 ft | 364 kts | 205° |
| 2026-05-05 09:18 | 22.62083 | 88.75508 | 12095 ft | 360 kts | 205° |
| 2026-05-05 09:18 | 22.59954 | 88.74150 | 11179 ft | 352 kts | 222° |
| 2026-05-05 09:18 | 22.58202 | 88.72325 | 10355 ft | 348 kts | 226° |
| 2026-05-05 09:18 | 22.56504 | 88.70496 | 10023 ft | 337 kts | 226° |
| 2026-05-05 09:19 | 22.54905 | 88.68766 | 9884 ft | 313 kts | 227° |
| 2026-05-05 09:19 | 22.53478 | 88.67118 | 9847 ft | 288 kts | 229° |
| 2026-05-05 09:19 | 22.52205 | 88.65571 | 9853 ft | 264 kts | 230° |
| 2026-05-05 09:19 | 22.51044 | 88.64131 | 9739 ft | 247 kts | 230° |
| 2026-05-05 09:20 | 22.49926 | 88.62739 | 9353 ft | 244 kts | 230° |
| 2026-05-05 09:20 | 22.48816 | 88.61364 | 8938 ft | 242 kts | 230° |
| 2026-05-05 09:20 | 22.47707 | 88.60000 | 8514 ft | 241 kts | 230° |
| 2026-05-05 09:20 | 22.46594 | 88.58656 | 8062 ft | 239 kts | 229° |
| 2026-05-05 09:21 | 22.45482 | 88.57321 | 7613 ft | 238 kts | 229° |
| 2026-05-05 09:21 | 22.44379 | 88.55997 | 7172 ft | 237 kts | 229° |
| 2026-05-05 09:21 | 22.43280 | 88.54679 | 6736 ft | 235 kts | 229° |
| 2026-05-05 09:21 | 22.42188 | 88.53369 | 6321 ft | 234 kts | 230° |
| 2026-05-05 09:22 | 22.41098 | 88.52063 | 5871 ft | 233 kts | 229° |
| 2026-05-05 09:22 | 22.40016 | 88.50770 | 5460 ft | 231 kts | 229° |
| 2026-05-05 09:22 | 22.38942 | 88.49487 | 5040 ft | 229 kts | 229° |
| 2026-05-05 09:22 | 22.37964 | 88.48185 | 4818 ft | 215 kts | 245° |
| 2026-05-05 09:23 | 22.37619 | 88.46680 | 4576 ft | 204 kts | 272° |
| 2026-05-05 09:23 | 22.38043 | 88.45247 | 4168 ft | 203 kts | 310° |
| 2026-05-05 09:23 | 22.39167 | 88.44426 | 3988 ft | 194 kts | 341° |
| 2026-05-05 09:23 | 22.40470 | 88.44069 | 3649 ft | 194 kts | 348° |
| 2026-05-05 09:24 | 22.41776 | 88.43795 | 3447 ft | 186 kts | 349° |
| 2026-05-05 09:24 | 22.43012 | 88.43547 | 3324 ft | 177 kts | 349° |
| 2026-05-05 09:24 | 22.44209 | 88.43309 | 3132 ft | 174 kts | 349° |
| 2026-05-05 09:24 | 22.44994 | 88.43153 | 2993 ft | 173 kts | 349° |
| 2026-05-05 09:25 | 22.46182 | 88.42918 | 2749 ft | 174 kts | 349° |
| 2026-05-05 09:25 | 22.47786 | 88.42782 | 2427 ft | 173 kts | 3° |
| 2026-05-05 09:25 | 22.48581 | 88.42838 | 2264 ft | 173 kts | 5° |
| 2026-05-05 09:25 | 22.49774 | 88.42955 | 2047 ft | 172 kts | 6° |
| 2026-05-05 09:26 | 22.50968 | 88.43087 | 2003 ft | 173 kts | 6° |
| 2026-05-05 09:26 | 22.52164 | 88.43224 | 2007 ft | 173 kts | 6° |
| 2026-05-05 09:26 | 22.53365 | 88.43363 | 1997 ft | 174 kts | 6° |
| 2026-05-05 09:26 | 22.54564 | 88.43503 | 1857 ft | 173 kts | 6° |
| 2026-05-05 09:27 | 22.55756 | 88.43642 | 1667 ft | 171 kts | 6° |
| 2026-05-05 09:27 | 22.56903 | 88.43776 | 1456 ft | 161 kts | 6° |
| 2026-05-05 09:27 | 22.58002 | 88.43905 | 1260 ft | 157 kts | 6° |
| 2026-05-05 09:27 | 22.59082 | 88.44031 | 1062 ft | 156 kts | 6° |
| 2026-05-05 09:28 | 22.60158 | 88.44157 | 858 ft | 155 kts | 6° |
| 2026-05-05 09:28 | 22.61225 | 88.44281 | 666 ft | 154 kts | 7° |
| 2026-05-05 09:28 | 22.62282 | 88.44406 | 446 ft | 152 kts | 8° |
| 2026-05-05 09:28 | 22.63335 | 88.44523 | 241 ft | 152 kts | 7° |
| 2026-05-05 09:29 | 22.64380 | 88.44654 | 47 ft | 151 kts | 8° |
| 2026-05-05 09:29 | 22.65330 | 88.44767 | 28 ft | 117 kts | 6° |
| 2026-05-05 09:29 | 22.65971 | 88.44841 | 28 ft | 68 kts | 6° |
| 2026-05-05 09:29 | 22.66315 | 88.44844 | 26 ft | 41 kts | 345° |
| 2026-05-05 09:30 | 22.66499 | 88.44744 | 22 ft | 12 kts | 327° |
| 2026-05-05 09:30 | 22.66534 | 88.44719 | 22 ft | 6 kts | 327° |
| 2026-05-05 09:30 | 22.66563 | 88.44677 | 24 ft | 8 kts | 285° |
| 2026-05-05 09:30 | 22.66571 | 88.44608 | 22 ft | 10 kts | 275° |
| 2026-05-05 09:31 | 22.66564 | 88.44532 | 23 ft | 11 kts | 231° |
| 2026-05-05 09:31 | 22.66487 | 88.44514 | 23 ft | 12 kts | 186° |
| 2026-05-05 09:31 | 22.66396 | 88.44504 | 23 ft | 14 kts | 186° |
| 2026-05-05 09:31 | 22.66291 | 88.44492 | 23 ft | 16 kts | 185° |
| 2026-05-05 09:32 | 22.66169 | 88.44477 | 26 ft | 19 kts | 186° |
| 2026-05-05 09:32 | 22.66033 | 88.44461 | 24 ft | 21 kts | 186° |
| 2026-05-05 09:32 | 22.65912 | 88.44429 | 24 ft | 17 kts | 199° |
| 2026-05-05 09:32 | 22.65788 | 88.44412 | 24 ft | 19 kts | 185° |
| 2026-05-05 09:33 | 22.65647 | 88.44397 | 24 ft | 21 kts | 186° |
| 2026-05-05 09:33 | 22.65491 | 88.44379 | 24 ft | 24 kts | 186° |
| 2026-05-05 09:33 | 22.65321 | 88.44361 | 24 ft | 26 kts | 186° |
| 2026-05-05 09:33 | 22.65158 | 88.44340 | 26 ft | 22 kts | 185° |
| 2026-05-05 09:34 | 22.65076 | 88.44305 | 25 ft | 12 kts | 240° |
| 2026-05-05 09:34 | 22.65026 | 88.44233 | 23 ft | 12 kts | 195° |
| 2026-05-05 09:34 | 22.64940 | 88.44223 | 24 ft | 13 kts | 185° |
| 2026-05-05 09:34 | 22.64850 | 88.44214 | 24 ft | 13 kts | 186° |
| 2026-05-05 09:35 | 22.64757 | 88.44202 | 24 ft | 14 kts | 187° |
| 2026-05-05 09:35 | 22.64561 | 88.44179 | 24 ft | 15 kts | 186° |
| 2026-05-05 09:35 | 22.64456 | 88.44168 | 23 ft | 15 kts | 186° |
| 2026-05-05 09:36 | 22.64348 | 88.44154 | 23 ft | 16 kts | 187° |
| 2026-05-05 09:36 | 22.64235 | 88.44141 | 25 ft | 17 kts | 186° |
| 2026-05-05 09:36 | 22.64117 | 88.44127 | 23 ft | 17 kts | 185° |
| 2026-05-05 09:36 | 22.64034 | 88.44117 | 25 ft | 7 kts | 193° |
| 2026-05-05 09:37 | 22.64005 | 88.44080 | 24 ft | 7 kts | 246° |
| 2026-05-05 09:37 | 22.63987 | 88.44031 | 23 ft | 7 kts | 248° |
| 2026-05-05 09:37 | 22.63967 | 88.43979 | 23 ft | 8 kts | 248° |
| 2026-05-05 09:37 | 22.63945 | 88.43925 | 25 ft | 8 kts | 245° |
| 2026-05-05 09:38 | 22.63934 | 88.43886 | 23 ft | 2 kts | 282° |
| 2026-05-05 09:38 | 22.63948 | 88.43878 | 25 ft | 2 kts | 335° |
| 2026-05-05 09:38 | 22.63965 | 88.43870 | 23 ft | 3 kts | 336° |
| 2026-05-05 09:38 | 22.63984 | 88.43861 | 23 ft | 3 kts | 338° |
| 2026-05-05 09:39 | 22.64005 | 88.43852 | 25 ft | 3 kts | 335° |
| 2026-05-05 09:39 | 22.64012 | 88.43848 | 23 ft | 1 kts | 336° |
| 2026-05-05 09:39 | 22.64015 | 88.43846 | 23 ft | 0 kts | 336° |
| 2026-05-05 09:39 | 22.64017 | 88.43846 | 23 ft | 0 kts | 336° |
| 2026-05-05 09:40 | 22.64018 | 88.43845 | 23 ft | 0 kts | 336° |